createdAt,value
2023-03-03T01:47:40.580Z,101594.84
2023-03-03T05:13:36.755Z,101765.03
2023-03-03T05:16:32.341Z,101856.03
2023-03-03T05:22:32.393Z,101700.38
2023-03-03T05:35:23.578Z,101877.44
2023-03-03T05:37:54.044Z,101905.63
2023-03-03T05:40:23.795Z,101903.56
2023-03-03T05:42:53.746Z,101916.50
2023-03-03T05:45:24.450Z,101898.53
2023-03-03T05:47:55.073Z,101912.03
2023-03-03T05:50:28.361Z,101847.97
2023-03-03T05:52:58.027Z,101896.56
2023-03-03T05:55:27.984Z,101911.22
2023-03-03T05:57:57.653Z,101916.59
2023-03-03T06:00:27.521Z,101914.97
2023-03-03T06:02:57.199Z,101910.81
2023-03-03T06:05:29.685Z,101916.50
2023-03-03T06:08:00.025Z,101917.38
2023-03-03T06:10:29.897Z,101916.97
2023-03-03T06:13:03.343Z,101839.03
2023-03-03T06:15:33.702Z,101866.09
2023-03-03T06:18:04.036Z,101845.91
2023-03-03T06:20:39.007Z,101943.53
2023-03-03T06:23:10.521Z,101930.00
2023-03-03T06:25:42.964Z,101930.53
2023-03-03T06:28:13.335Z,101952.00
2023-03-03T06:30:43.148Z,101954.97
2023-03-03T06:33:13.030Z,101929.78
2023-03-03T06:35:45.267Z,101937.00
2023-03-03T06:38:14.966Z,101944.47
2023-03-03T06:40:44.607Z,101955.63
2023-03-03T06:43:14.255Z,101967.88
2023-03-03T06:45:44.045Z,101928.59
2023-03-03T06:48:13.663Z,101984.28
2023-03-03T06:50:45.866Z,101986.13
2023-03-03T06:53:17.460Z,101984.47
2023-03-03T06:55:48.161Z,101974.38
2023-03-03T06:58:19.348Z,101981.69
2023-03-03T07:00:57.119Z,101917.31
2023-03-03T07:03:30.147Z,102000.00
2023-03-03T07:06:06.183Z,101922.69
2023-03-03T07:08:36.815Z,101993.66
2023-03-03T07:11:15.193Z,101907.81
2023-03-03T07:13:49.983Z,101999.25
2023-03-03T07:16:22.326Z,101973.69
2023-03-03T07:38:16.038Z,102020.00
2023-03-03T07:40:54.048Z,101692.25
2023-03-03T07:43:37.298Z,101848.81
2023-03-03T07:46:30.674Z,101998.06
2023-03-03T07:49:01.568Z,102002.44
2023-03-03T07:51:41.963Z,102011.28
2023-03-03T07:54:25.920Z,101998.81
2023-03-03T07:56:59.067Z,102015.00
2023-03-03T07:59:29.652Z,102027.13
2023-03-03T08:02:01.561Z,102023.16
2023-03-03T08:04:39.686Z,102015.94
2023-03-03T08:07:16.834Z,102013.09
2023-03-03T08:09:52.130Z,101995.13
2023-03-03T08:12:31.797Z,102023.22
2023-03-03T08:15:15.408Z,101950.66
2023-03-03T08:17:46.729Z,101996.28
2023-03-03T08:20:45.575Z,101992.13
2023-03-03T08:23:16.546Z,102025.66
2023-03-03T08:25:46.738Z,102023.47
2023-03-03T08:28:19.652Z,102014.47
2023-03-03T08:30:49.823Z,102011.75
2023-03-03T08:33:20.102Z,102024.13
2023-03-03T08:35:50.155Z,102013.84
2023-03-03T08:38:22.736Z,102032.50
2023-03-03T08:40:52.793Z,102013.59
2023-03-03T08:43:25.341Z,102028.84
2023-03-03T08:45:56.545Z,102033.03
2023-03-03T08:48:26.199Z,102031.25
2023-03-03T08:50:56.126Z,102042.97
2023-03-03T08:53:26.801Z,102030.50
2023-03-03T08:55:56.424Z,102017.97
2023-03-03T08:58:35.120Z,102015.81
2023-03-03T09:01:06.065Z,102016.31
2023-03-03T09:03:35.887Z,102025.25
2023-03-03T09:06:06.139Z,102041.66
2023-03-03T09:08:35.799Z,102030.06
2023-03-03T09:11:05.500Z,102026.22
2023-03-03T09:13:37.779Z,102014.72
2023-03-03T09:16:14.610Z,102034.66
2023-03-03T09:18:45.175Z,102042.44
2023-03-03T09:21:26.866Z,102054.63
2023-03-03T09:23:57.694Z,102045.63
2023-03-03T09:26:33.363Z,102039.72
2023-03-03T09:29:20.969Z,102042.13
2023-03-03T09:31:52.210Z,102018.41
2023-03-03T09:34:24.704Z,102026.75
2023-03-03T09:36:55.179Z,102035.50
2023-03-03T09:39:27.378Z,102026.97
2023-03-03T09:42:16.130Z,102043.63
2023-03-03T09:45:03.615Z,102043.75
2023-03-03T09:47:47.249Z,102043.59
2023-03-03T09:50:30.720Z,102053.13
2023-03-03T09:53:13.900Z,102036.09
2023-03-03T09:55:51.364Z,102052.22
2023-03-03T09:58:51.225Z,102021.53
2023-03-03T10:01:46.808Z,102034.56
2023-03-03T10:04:31.707Z,102052.22
2023-03-03T10:07:21.358Z,102057.63
2023-03-03T10:10:16.033Z,102035.03
2023-03-03T10:12:54.280Z,102062.59
2023-03-03T10:15:40.545Z,102048.53
2023-03-03T10:18:27.986Z,102023.78
2023-03-03T10:21:07.300Z,102039.47
2023-03-03T10:23:59.067Z,102044.94
2023-03-03T10:27:09.950Z,102059.34
2023-03-03T10:29:48.961Z,102063.38
2023-03-03T10:32:43.018Z,102068.28
2023-03-03T10:35:42.241Z,102054.38
2023-03-03T10:38:35.536Z,102059.97
2023-03-03T10:41:18.695Z,102036.69
2023-03-03T10:44:04.097Z,102068.41
2023-03-03T10:46:48.803Z,102060.09
2023-03-03T10:49:42.761Z,102063.25
2023-03-03T10:52:34.159Z,102047.31
2023-03-03T10:55:28.407Z,102023.22
2023-03-03T10:58:15.843Z,102060.91
2023-03-03T11:00:52.319Z,102045.25
2023-03-03T11:03:55.530Z,102050.91
2023-03-03T11:06:29.441Z,102069.00
2023-03-03T11:09:11.597Z,102067.72
2023-03-03T11:11:46.698Z,102047.59
2023-03-03T11:14:24.629Z,102062.72
2023-03-03T11:17:04.096Z,102052.31
2023-03-03T11:19:46.396Z,102041.25
2023-03-03T11:22:28.129Z,102038.81
2023-03-03T11:25:11.537Z,102045.94
2023-03-03T11:28:13.930Z,102047.72
2023-03-03T11:30:57.538Z,102028.91
2023-03-03T11:33:36.869Z,102019.47
2023-03-03T11:36:13.675Z,102037.84
2023-03-03T11:38:50.659Z,102038.94
2023-03-03T11:41:33.446Z,102029.16
2023-03-03T11:44:12.724Z,102018.47
2023-03-03T11:46:49.292Z,102039.00
2023-03-03T11:49:25.825Z,102037.53
2023-03-03T11:52:09.284Z,102021.41
2023-03-03T11:54:49.160Z,102037.47
2023-03-03T11:57:29.108Z,102033.28
2023-03-03T12:00:09.493Z,102033.88
2023-03-03T12:02:59.796Z,102010.91
2023-03-03T12:05:41.606Z,102029.38
2023-03-03T12:08:26.004Z,102021.88
2023-03-03T12:11:03.300Z,102003.22
2023-03-03T12:13:46.494Z,102004.38
2023-03-03T12:16:22.418Z,102019.03
2023-03-03T12:19:03.973Z,102012.72
2023-03-03T12:21:53.774Z,102005.63
2023-03-03T12:24:49.447Z,101991.34
2023-03-03T12:27:25.878Z,101997.94
2023-03-03T12:30:10.723Z,101977.91
2023-03-03T12:33:04.271Z,101967.69
2023-03-03T12:35:42.150Z,101996.91
2023-03-03T12:38:22.079Z,101985.34
2023-03-03T12:40:59.778Z,101991.31
2023-03-03T12:43:42.974Z,101959.28
2023-03-03T12:46:28.560Z,101975.28
2023-03-03T12:48:58.587Z,101974.41
2023-03-03T12:51:40.053Z,101933.34
2023-03-03T12:54:40.546Z,101968.13
2023-03-03T12:57:24.530Z,101936.59
2023-03-03T13:00:21.992Z,101922.13
2023-03-03T13:03:03.399Z,101918.22
2023-03-03T13:05:45.709Z,101967.28
2023-03-03T13:08:34.025Z,101960.25
2023-03-03T13:11:37.085Z,101950.25
2023-03-03T13:14:17.578Z,101946.97
2023-03-03T13:16:54.659Z,101949.75
2023-03-03T13:19:35.026Z,101930.88
2023-03-03T13:22:11.238Z,101969.19
2023-03-03T13:24:51.950Z,101964.13
2023-03-03T13:27:26.849Z,101963.94
2023-03-03T13:30:03.061Z,101963.66
2023-03-03T13:32:42.754Z,101961.03
2023-03-03T13:35:28.231Z,101954.75
2023-03-03T13:38:00.484Z,101968.47
2023-03-03T13:40:39.770Z,101934.00
2023-03-03T13:43:15.691Z,101946.59
2023-03-03T13:45:57.913Z,101956.41
2023-03-03T13:48:40.272Z,101949.84
2023-03-03T13:51:22.953Z,101915.16
2023-03-03T13:54:01.513Z,101951.81
2023-03-03T13:56:51.050Z,101947.13
2023-03-03T13:59:31.948Z,101930.88
2023-03-03T14:02:08.697Z,101939.75
2023-03-03T14:04:50.217Z,101934.56
2023-03-03T14:07:27.632Z,101934.13
2023-03-03T14:10:09.953Z,101912.47
2023-03-03T14:12:47.432Z,101931.38
2023-03-03T14:15:24.949Z,101934.56
2023-03-03T14:18:21.432Z,101929.78
2023-03-03T14:20:54.351Z,101928.13
2023-03-03T14:23:33.820Z,101928.13
2023-03-03T14:26:11.532Z,101928.63
2023-03-03T14:28:44.198Z,101869.47
2023-03-03T14:31:24.726Z,101887.59
2023-03-03T14:34:03.532Z,101883.84
2023-03-03T14:36:36.215Z,101879.72
2023-03-03T14:39:31.008Z,101893.16
2023-03-03T14:42:00.943Z,101903.28
2023-03-03T14:44:34.213Z,101887.91
2023-03-03T14:47:08.734Z,101869.75
2023-03-03T14:49:40.143Z,101888.03
2023-03-03T14:52:22.667Z,101858.06
2023-03-03T14:54:57.372Z,101856.97
2023-03-03T14:57:46.707Z,101886.72
2023-03-03T15:00:36.540Z,101882.84
2023-03-03T15:03:23.520Z,101848.25
2023-03-03T15:05:54.372Z,101868.03
2023-03-03T15:08:34.299Z,101814.78
2023-03-03T15:11:29.675Z,101825.34
2023-03-03T15:14:14.919Z,101857.00
2023-03-03T15:16:45.342Z,101834.78
2023-03-03T15:19:36.942Z,101855.09
2023-03-03T15:22:14.785Z,101863.50
2023-03-03T15:24:52.567Z,101840.47
2023-03-03T15:27:31.428Z,101801.50
2023-03-03T15:30:15.636Z,101844.53
2023-03-03T15:32:52.035Z,101834.16
2023-03-03T15:35:32.889Z,101846.03
2023-03-03T15:38:06.812Z,101813.09
2023-03-03T15:40:48.754Z,101802.69
2023-03-03T15:43:29.504Z,101838.72
2023-03-03T15:46:12.652Z,101823.16
2023-03-03T15:49:03.883Z,101818.09
2023-03-03T15:52:03.385Z,101806.50
2023-03-03T15:54:46.262Z,101830.44
2023-03-03T15:57:25.023Z,101811.69
2023-03-03T16:00:25.299Z,101831.59
2023-03-03T16:03:02.602Z,101828.56
2023-03-03T16:05:36.935Z,101826.63
2023-03-03T16:08:14.928Z,101789.81
2023-03-03T16:10:58.496Z,101810.38
2023-03-03T16:13:51.422Z,101820.50
2023-03-03T16:16:36.429Z,101827.50
2023-03-03T16:19:18.945Z,101821.19
2023-03-03T16:22:19.183Z,101821.97
2023-03-03T16:25:02.819Z,101809.44
2023-03-03T16:27:41.151Z,101813.13
2023-03-03T16:30:26.123Z,101823.53
2023-03-03T16:33:13.825Z,101828.97
2023-03-03T16:35:50.520Z,101806.13
2023-03-03T16:38:25.606Z,101762.44
2023-03-03T16:40:58.608Z,101816.31
2023-03-03T16:43:34.831Z,101824.28
2023-03-03T16:46:24.728Z,101802.13
2023-03-03T16:49:06.224Z,101822.06
2023-03-03T16:51:45.140Z,101822.34
2023-03-03T16:54:21.030Z,101699.19
2023-03-03T16:57:01.209Z,101808.28
2023-03-03T16:59:48.802Z,101815.75
2023-03-03T17:02:43.120Z,101815.09
2023-03-03T17:05:26.716Z,101805.94
2023-03-03T17:08:08.790Z,101818.09
2023-03-03T17:10:44.634Z,101818.16
2023-03-03T17:13:34.608Z,101814.88
2023-03-03T17:16:12.031Z,101810.59
2023-03-03T17:18:55.528Z,101817.13
2023-03-03T17:21:45.224Z,101781.84
2023-03-03T17:24:23.139Z,101820.63
2023-03-03T17:27:03.192Z,101828.66
2023-03-03T17:29:46.483Z,101823.03
2023-03-03T17:32:28.410Z,101829.84
2023-03-03T17:35:15.948Z,101823.34
2023-03-03T17:38:00.581Z,101828.97
2023-03-03T17:40:47.192Z,101814.06
2023-03-03T17:43:20.560Z,101825.44
2023-03-03T17:45:53.563Z,101825.34
2023-03-03T17:48:43.562Z,101833.81
2023-03-03T17:51:36.144Z,101806.31
2023-03-03T17:54:27.760Z,101832.09
2023-03-03T17:57:08.976Z,101810.53
2023-03-03T18:00:00.005Z,101831.19
2023-03-03T18:02:53.534Z,101813.22
2023-03-03T18:05:45.364Z,101800.31
2023-03-03T18:08:36.051Z,101826.91
2023-03-03T18:11:22.431Z,101824.09
2023-03-03T18:14:15.100Z,101834.09
2023-03-03T18:17:19.413Z,101825.53
2023-03-03T18:20:04.429Z,101825.06
2023-03-03T18:22:35.901Z,101838.56
2023-03-03T18:25:12.674Z,101815.72
2023-03-03T18:27:45.512Z,101825.16
2023-03-03T18:30:25.086Z,101776.59
2023-03-03T18:33:14.124Z,101821.81
2023-03-03T18:35:45.503Z,101820.34
2023-03-03T18:38:35.330Z,101830.84
2023-03-03T18:41:06.263Z,101834.44
2023-03-03T18:44:04.723Z,101837.56
2023-03-03T18:46:52.802Z,101807.81
2023-03-03T18:49:55.679Z,101838.53
2023-03-03T18:52:28.866Z,101834.06
2023-03-03T18:55:27.541Z,101828.25
2023-03-03T18:58:35.712Z,101832.94
2023-03-03T19:01:37.937Z,101847.16
2023-03-03T19:04:25.585Z,101831.78
2023-03-03T19:07:15.762Z,101837.84
2023-03-03T19:09:56.964Z,101847.28
2023-03-03T19:12:46.685Z,101850.19
2023-03-03T19:15:48.867Z,101828.63
2023-03-03T19:18:22.350Z,101848.81
2023-03-03T19:20:58.520Z,101850.38
2023-03-03T19:23:49.024Z,101818.94
2023-03-03T19:26:58.509Z,101833.09
2023-03-03T19:29:45.371Z,101839.50
2023-03-03T19:32:33.691Z,101848.78
2023-03-03T19:35:17.648Z,101852.19
2023-03-03T19:37:59.133Z,101855.78
2023-03-03T19:40:36.928Z,101840.31
2023-03-03T19:43:16.982Z,101831.84
2023-03-03T19:46:04.797Z,101838.53
2023-03-03T19:48:38.797Z,101847.63
2023-03-03T19:51:17.665Z,101827.69
2023-03-03T19:53:59.729Z,101838.63
2023-03-03T19:56:39.392Z,101843.84
2023-03-03T19:59:23.342Z,101814.16
2023-03-03T20:02:13.224Z,101837.03
2023-03-03T20:05:06.534Z,101794.06
2023-03-03T20:07:47.015Z,101848.03
2023-03-03T20:10:36.617Z,101842.31
2023-03-03T20:13:19.080Z,101842.47
2023-03-03T20:15:57.025Z,101826.66
2023-03-03T20:18:46.132Z,101842.81
2023-03-03T20:21:24.228Z,101843.34
2023-03-03T20:24:06.350Z,101791.28
2023-03-03T20:26:48.034Z,101747.72
2023-03-03T20:29:39.952Z,101777.50
2023-03-03T20:32:21.134Z,101804.50
2023-03-03T20:35:02.282Z,101823.38
2023-03-03T20:37:44.663Z,101825.88
2023-03-03T20:40:27.250Z,101796.09
2023-03-03T20:43:11.242Z,101838.19
2023-03-03T20:45:51.778Z,101838.47
2023-03-03T20:48:39.621Z,101790.16
2023-03-03T20:51:16.541Z,101841.06
2023-03-03T20:53:53.943Z,101850.25
2023-03-03T20:56:30.892Z,101840.19
2023-03-03T20:59:16.418Z,101842.56
2023-03-03T21:01:54.749Z,101837.22
2023-03-03T21:04:27.064Z,101835.66
2023-03-03T21:06:57.125Z,101808.25
2023-03-03T21:09:29.822Z,101852.53
2023-03-03T21:12:01.061Z,101809.97
2023-03-03T21:14:36.975Z,101844.38
2023-03-03T21:17:28.047Z,101852.94
2023-03-03T21:19:57.700Z,101815.75
2023-03-03T21:22:27.469Z,101847.88
2023-03-03T21:24:59.441Z,101819.31
2023-03-03T21:27:32.830Z,101845.97
2023-03-03T21:30:12.649Z,101837.22
2023-03-03T21:32:44.520Z,101846.66
2023-03-03T21:35:15.775Z,101823.50
2023-03-03T21:37:48.617Z,101812.94
2023-03-03T21:40:25.154Z,101832.69
2023-03-03T21:42:57.083Z,101834.44
2023-03-03T21:45:30.230Z,101800.91
2023-03-03T21:48:02.611Z,101833.22
2023-03-03T21:50:32.877Z,101833.22
2023-03-03T21:53:02.556Z,101821.84
2023-03-03T21:55:32.229Z,101792.84
2023-03-03T21:58:01.896Z,101798.13
2023-03-03T22:00:34.256Z,101825.50
2023-03-03T22:03:04.104Z,101769.09
2023-03-03T22:05:33.892Z,101820.44
2023-03-03T22:08:03.580Z,101819.78
2023-03-03T22:10:33.187Z,101808.41
2023-03-03T22:13:02.869Z,101810.00
2023-03-03T22:15:35.066Z,101820.44
2023-03-03T22:18:04.756Z,101804.31
2023-03-03T22:20:34.386Z,101815.75
2023-03-03T22:23:04.052Z,101814.28
2023-03-03T22:25:33.793Z,101788.88
2023-03-03T22:28:03.437Z,101810.00
2023-03-03T22:30:35.641Z,101814.53
2023-03-03T22:33:05.569Z,101814.19
2023-03-03T22:35:35.298Z,101814.28
2023-03-03T22:38:04.952Z,101781.31
2023-03-03T22:40:34.684Z,101798.47
2023-03-03T22:43:06.442Z,101798.19
2023-03-03T22:45:38.640Z,101799.59
2023-03-03T22:48:09.113Z,101804.72
2023-03-03T22:50:41.811Z,101773.13
2023-03-03T22:53:12.335Z,101802.13
2023-03-03T22:55:41.938Z,101788.88
2023-03-03T22:58:11.934Z,101790.94
2023-03-03T23:00:44.498Z,101789.91
2023-03-03T23:03:14.895Z,101804.31
2023-03-03T23:05:45.213Z,101719.97
2023-03-03T23:08:17.230Z,101732.25
2023-03-03T23:10:47.641Z,101798.28
2023-03-03T23:13:17.901Z,101784.03
2023-03-03T23:15:50.419Z,101744.75
2023-03-03T23:18:20.205Z,101752.13
2023-03-03T23:20:49.981Z,101807.38
2023-03-03T23:23:19.751Z,101807.69
2023-03-03T23:25:49.549Z,101729.47
2023-03-03T23:28:19.409Z,101802.56
2023-03-03T23:30:52.413Z,101774.63
2023-03-03T23:33:22.293Z,101788.81
2023-03-03T23:35:53.181Z,101784.84
2023-03-03T23:38:23.065Z,101727.19
2023-03-03T23:40:52.956Z,101728.94
2023-03-03T23:43:23.028Z,101781.78
2023-03-03T23:45:55.543Z,101738.56
2023-03-03T23:48:25.339Z,101788.75
2023-03-03T23:50:55.109Z,101783.75
2023-03-03T23:53:24.753Z,101800.44
2023-03-03T23:55:54.421Z,101798.72
2023-03-03T23:58:24.027Z,101765.44
